sensor_id;sensor_type;location;lat;lon;timestamp;temperature;humidity
11426;DHT22;5769;47.998;7.788;2023-08-08T00:01:33;21.90;63.10
11426;DHT22;5769;47.998;7.788;2023-08-08T00:04:00;21.80;63.00
11426;DHT22;5769;47.998;7.788;2023-08-08T00:06:27;21.90;63.10
11426;DHT22;5769;47.998;7.788;2023-08-08T00:08:55;21.90;63.10
11426;DHT22;5769;47.998;7.788;2023-08-08T00:11:22;21.90;63.10
11426;DHT22;5769;47.998;7.788;2023-08-08T00:13:48;21.90;63.10
11426;DHT22;5769;47.998;7.788;2023-08-08T00:16:15;21.90;63.10
11426;DHT22;5769;47.998;7.788;2023-08-08T00:18:42;21.90;63.10
11426;DHT22;5769;47.998;7.788;2023-08-08T00:21:08;21.90;63.10
11426;DHT22;5769;47.998;7.788;2023-08-08T00:23:35;21.90;63.10
11426;DHT22;5769;47.998;7.788;2023-08-08T00:26:03;21.90;63.10
11426;DHT22;5769;47.998;7.788;2023-08-08T00:28:29;21.90;63.20
11426;DHT22;5769;47.998;7.788;2023-08-08T00:30:56;21.90;63.10
11426;DHT22;5769;47.998;7.788;2023-08-08T00:33:23;21.90;63.10
11426;DHT22;5769;47.998;7.788;2023-08-08T00:35:50;21.90;63.10
11426;DHT22;5769;47.998;7.788;2023-08-08T00:38:16;21.90;63.10
11426;DHT22;5769;47.998;7.788;2023-08-08T00:40:44;21.80;63.00
11426;DHT22;5769;47.998;7.788;2023-08-08T00:43:12;21.90;63.10
11426;DHT22;5769;47.998;7.788;2023-08-08T00:45:39;21.90;63.10
11426;DHT22;5769;47.998;7.788;2023-08-08T00:48:08;21.80;63.00
11426;DHT22;5769;47.998;7.788;2023-08-08T00:50:35;21.90;63.10
11426;DHT22;5769;47.998;7.788;2023-08-08T00:53:03;21.80;63.00
11426;DHT22;5769;47.998;7.788;2023-08-08T00:55:30;21.90;63.10
11426;DHT22;5769;47.998;7.788;2023-08-08T00:57:57;21.90;63.10
11426;DHT22;5769;47.998;7.788;2023-08-08T01:00:25;21.90;63.10
11426;DHT22;5769;47.998;7.788;2023-08-08T01:02:52;21.80;63.00
11426;DHT22;5769;47.998;7.788;2023-08-08T01:05:19;21.80;63.00
11426;DHT22;5769;47.998;7.788;2023-08-08T01:07:52;21.80;63.00
11426;DHT22;5769;47.998;7.788;2023-08-08T01:10:21;21.80;63.00
11426;DHT22;5769;47.998;7.788;2023-08-08T01:12:53;21.80;62.90
11426;DHT22;5769;47.998;7.788;2023-08-08T01:15:20;21.80;63.00
11426;DHT22;5769;47.998;7.788;2023-08-08T01:17:49;21.80;62.90
11426;DHT22;5769;47.998;7.788;2023-08-08T01:20:16;21.80;62.90
11426;DHT22;5769;47.998;7.788;2023-08-08T01:22:50;21.80;62.90
11426;DHT22;5769;47.998;7.788;2023-08-08T01:25:20;21.80;62.90
11426;DHT22;5769;47.998;7.788;2023-08-08T01:27:47;21.80;62.90
11426;DHT22;5769;47.998;7.788;2023-08-08T01:30:14;21.80;62.90
11426;DHT22;5769;47.998;7.788;2023-08-08T01:32:41;21.80;62.90
11426;DHT22;5769;47.998;7.788;2023-08-08T01:35:08;21.80;62.90
11426;DHT22;5769;47.998;7.788;2023-08-08T01:37:38;21.80;62.90
11426;DHT22;5769;47.998;7.788;2023-08-08T01:40:07;21.80;62.90
11426;DHT22;5769;47.998;7.788;2023-08-08T01:42:37;21.80;62.80
11426;DHT22;5769;47.998;7.788;2023-08-08T01:45:04;21.80;62.90
11426;DHT22;5769;47.998;7.788;2023-08-08T01:47:33;21.80;62.90
11426;DHT22;5769;47.998;7.788;2023-08-08T01:50:00;21.80;62.90
11426;DHT22;5769;47.998;7.788;2023-08-08T01:52:27;21.80;62.90
11426;DHT22;5769;47.998;7.788;2023-08-08T01:54:53;21.80;62.90
11426;DHT22;5769;47.998;7.788;2023-08-08T01:57:20;21.80;62.90
11426;DHT22;5769;47.998;7.788;2023-08-08T01:59:49;21.80;62.80
11426;DHT22;5769;47.998;7.788;2023-08-08T02:02:16;21.80;62.80
11426;DHT22;5769;47.998;7.788;2023-08-08T02:04:43;21.80;62.80
11426;DHT22;5769;47.998;7.788;2023-08-08T02:07:10;21.80;62.70
11426;DHT22;5769;47.998;7.788;2023-08-08T02:09:37;21.80;62.80
11426;DHT22;5769;47.998;7.788;2023-08-08T02:12:04;21.80;62.70
11426;DHT22;5769;47.998;7.788;2023-08-08T02:14:31;21.80;62.70
11426;DHT22;5769;47.998;7.788;2023-08-08T02:16:59;21.80;62.70
11426;DHT22;5769;47.998;7.788;2023-08-08T02:19:25;21.80;62.60
11426;DHT22;5769;47.998;7.788;2023-08-08T02:21:52;21.80;62.70
11426;DHT22;5769;47.998;7.788;2023-08-08T02:24:19;21.80;62.60
11426;DHT22;5769;47.998;7.788;2023-08-08T02:26:45;21.80;62.60
11426;DHT22;5769;47.998;7.788;2023-08-08T02:29:12;21.80;62.60
11426;DHT22;5769;47.998;7.788;2023-08-08T02:31:39;21.80;62.60
11426;DHT22;5769;47.998;7.788;2023-08-08T02:34:07;21.80;62.60
11426;DHT22;5769;47.998;7.788;2023-08-08T02:36:33;21.80;62.60
11426;DHT22;5769;47.998;7.788;2023-08-08T02:39:00;21.80;62.50
11426;DHT22;5769;47.998;7.788;2023-08-08T02:41:27;21.80;62.50
11426;DHT22;5769;47.998;7.788;2023-08-08T02:43:53;21.80;62.40
11426;DHT22;5769;47.998;7.788;2023-08-08T02:46:20;21.80;62.40
11426;DHT22;5769;47.998;7.788;2023-08-08T02:48:47;21.80;62.40
11426;DHT22;5769;47.998;7.788;2023-08-08T02:51:15;21.80;62.30
11426;DHT22;5769;47.998;7.788;2023-08-08T02:53:41;21.80;62.40
11426;DHT22;5769;47.998;7.788;2023-08-08T02:56:08;21.80;62.40
11426;DHT22;5769;47.998;7.788;2023-08-08T02:58:35;21.80;62.30
11426;DHT22;5769;47.998;7.788;2023-08-08T03:01:01;21.80;62.30
11426;DHT22;5769;47.998;7.788;2023-08-08T03:03:28;21.80;62.30
11426;DHT22;5769;47.998;7.788;2023-08-08T03:05:55;21.80;62.20
11426;DHT22;5769;47.998;7.788;2023-08-08T03:08:23;21.80;62.20
11426;DHT22;5769;47.998;7.788;2023-08-08T03:10:49;21.80;62.20
11426;DHT22;5769;47.998;7.788;2023-08-08T03:13:16;21.80;62.20
11426;DHT22;5769;47.998;7.788;2023-08-08T03:15:43;21.80;62.20
11426;DHT22;5769;47.998;7.788;2023-08-08T03:18:09;21.80;62.20
11426;DHT22;5769;47.998;7.788;2023-08-08T03:20:36;21.80;62.20
11426;DHT22;5769;47.998;7.788;2023-08-08T03:23:03;21.80;62.20
11426;DHT22;5769;47.998;7.788;2023-08-08T03:25:31;21.80;62.20
11426;DHT22;5769;47.998;7.788;2023-08-08T03:27:58;21.80;62.20
11426;DHT22;5769;47.998;7.788;2023-08-08T03:30:24;21.80;62.10
11426;DHT22;5769;47.998;7.788;2023-08-08T03:32:51;21.80;62.20
11426;DHT22;5769;47.998;7.788;2023-08-08T03:35:18;21.80;62.10
11426;DHT22;5769;47.998;7.788;2023-08-08T03:37:44;21.80;62.10
11426;DHT22;5769;47.998;7.788;2023-08-08T03:40:11;21.80;62.10
11426;DHT22;5769;47.998;7.788;2023-08-08T03:42:41;21.80;62.10
11426;DHT22;5769;47.998;7.788;2023-08-08T03:45:09;21.80;62.00
11426;DHT22;5769;47.998;7.788;2023-08-08T03:47:35;21.80;62.00
11426;DHT22;5769;47.998;7.788;2023-08-08T03:50:03;21.80;62.00
11426;DHT22;5769;47.998;7.788;2023-08-08T03:52:30;21.80;62.00
11426;DHT22;5769;47.998;7.788;2023-08-08T03:54:59;21.80;62.00
11426;DHT22;5769;47.998;7.788;2023-08-08T03:57:26;21.80;61.90
11426;DHT22;5769;47.998;7.788;2023-08-08T03:59:54;21.80;61.90
11426;DHT22;5769;47.998;7.788;2023-08-08T04:02:21;21.80;61.90
11426;DHT22;5769;47.998;7.788;2023-08-08T04:04:47;21.70;61.80
11426;DHT22;5769;47.998;7.788;2023-08-08T04:07:14;21.80;61.90
11426;DHT22;5769;47.998;7.788;2023-08-08T04:09:41;21.80;61.90
11426;DHT22;5769;47.998;7.788;2023-08-08T04:12:08;21.80;61.80
11426;DHT22;5769;47.998;7.788;2023-08-08T04:14:35;21.80;61.80
11426;DHT22;5769;47.998;7.788;2023-08-08T04:17:03;21.80;61.70
11426;DHT22;5769;47.998;7.788;2023-08-08T04:19:30;21.80;61.70
11426;DHT22;5769;47.998;7.788;2023-08-08T04:21:57;21.80;61.70
11426;DHT22;5769;47.998;7.788;2023-08-08T04:24:23;21.80;61.70
11426;DHT22;5769;47.998;7.788;2023-08-08T04:26:50;21.80;61.70
11426;DHT22;5769;47.998;7.788;2023-08-08T04:29:16;21.80;61.70
11426;DHT22;5769;47.998;7.788;2023-08-08T04:31:43;21.80;61.60
11426;DHT22;5769;47.998;7.788;2023-08-08T04:34:11;21.80;61.60
11426;DHT22;5769;47.998;7.788;2023-08-08T04:36:38;21.80;61.60
11426;DHT22;5769;47.998;7.788;2023-08-08T04:39:05;21.80;61.50
11426;DHT22;5769;47.998;7.788;2023-08-08T04:41:31;21.80;61.50
11426;DHT22;5769;47.998;7.788;2023-08-08T04:43:58;21.70;61.40
11426;DHT22;5769;47.998;7.788;2023-08-08T04:46:25;21.70;61.50
11426;DHT22;5769;47.998;7.788;2023-08-08T04:48:51;21.70;61.40
11426;DHT22;5769;47.998;7.788;2023-08-08T04:51:19;21.70;61.40
11426;DHT22;5769;47.998;7.788;2023-08-08T04:53:46;21.70;61.40
11426;DHT22;5769;47.998;7.788;2023-08-08T04:56:13;21.70;61.40
11426;DHT22;5769;47.998;7.788;2023-08-08T04:58:39;21.70;61.40
11426;DHT22;5769;47.998;7.788;2023-08-08T05:01:06;21.70;61.40
11426;DHT22;5769;47.998;7.788;2023-08-08T05:03:34;21.70;61.40
11426;DHT22;5769;47.998;7.788;2023-08-08T05:06:00;21.70;61.40
11426;DHT22;5769;47.998;7.788;2023-08-08T05:08:29;21.80;61.90
11426;DHT22;5769;47.998;7.788;2023-08-08T05:10:56;21.80;61.70
11426;DHT22;5769;47.998;7.788;2023-08-08T05:13:23;21.80;62.00
11426;DHT22;5769;47.998;7.788;2023-08-08T05:15:49;21.80;61.60
11426;DHT22;5769;47.998;7.788;2023-08-08T05:18:16;21.80;61.50
11426;DHT22;5769;47.998;7.788;2023-08-08T05:20:43;21.80;61.50
11426;DHT22;5769;47.998;7.788;2023-08-08T05:23:09;21.80;61.50
11426;DHT22;5769;47.998;7.788;2023-08-08T05:25:37;21.80;61.50
11426;DHT22;5769;47.998;7.788;2023-08-08T05:28:04;21.70;62.20
11426;DHT22;5769;47.998;7.788;2023-08-08T05:30:31;21.80;61.50
11426;DHT22;5769;47.998;7.788;2023-08-08T05:32:59;21.80;61.50
11426;DHT22;5769;47.998;7.788;2023-08-08T05:35:25;21.70;61.40
11426;DHT22;5769;47.998;7.788;2023-08-08T05:37:52;21.70;61.40
11426;DHT22;5769;47.998;7.788;2023-08-08T05:40:19;21.70;61.40
11426;DHT22;5769;47.998;7.788;2023-08-08T05:42:47;21.70;61.40
11426;DHT22;5769;47.998;7.788;2023-08-08T05:45:13;21.70;61.50
11426;DHT22;5769;47.998;7.788;2023-08-08T05:47:40;21.70;61.40
11426;DHT22;5769;47.998;7.788;2023-08-08T05:50:07;21.80;61.50
11426;DHT22;5769;47.998;7.788;2023-08-08T05:52:34;21.70;61.50
11426;DHT22;5769;47.998;7.788;2023-08-08T05:55:01;21.70;61.50
11426;DHT22;5769;47.998;7.788;2023-08-08T05:57:27;21.80;61.50
11426;DHT22;5769;47.998;7.788;2023-08-08T05:59:55;21.70;61.50
11426;DHT22;5769;47.998;7.788;2023-08-08T06:02:22;21.70;61.50
11426;DHT22;5769;47.998;7.788;2023-08-08T06:04:49;21.70;61.50
11426;DHT22;5769;47.998;7.788;2023-08-08T06:07:15;21.70;61.50
11426;DHT22;5769;47.998;7.788;2023-08-08T06:09:42;21.70;61.50
11426;DHT22;5769;47.998;7.788;2023-08-08T06:12:09;21.70;61.50
11426;DHT22;5769;47.998;7.788;2023-08-08T06:14:36;21.70;61.60
11426;DHT22;5769;47.998;7.788;2023-08-08T06:17:04;21.70;61.50
11426;DHT22;5769;47.998;7.788;2023-08-08T06:19:31;21.70;61.60
11426;DHT22;5769;47.998;7.788;2023-08-08T06:21:58;21.70;61.60
11426;DHT22;5769;47.998;7.788;2023-08-08T06:24:24;21.70;61.60
11426;DHT22;5769;47.998;7.788;2023-08-08T06:26:51;21.70;61.60
11426;DHT22;5769;47.998;7.788;2023-08-08T06:29:18;21.70;61.60
11426;DHT22;5769;47.998;7.788;2023-08-08T06:31:44;21.70;61.60
11426;DHT22;5769;47.998;7.788;2023-08-08T06:34:12;21.70;61.70
11426;DHT22;5769;47.998;7.788;2023-08-08T06:36:39;21.70;62.40
11426;DHT22;5769;47.998;7.788;2023-08-08T06:39:06;21.70;61.60
11426;DHT22;5769;47.998;7.788;2023-08-08T06:41:32;21.70;61.70
11426;DHT22;5769;47.998;7.788;2023-08-08T06:43:59;21.70;61.70
11426;DHT22;5769;47.998;7.788;2023-08-08T06:46:26;21.70;61.70
11426;DHT22;5769;47.998;7.788;2023-08-08T06:48:52;21.70;62.40
11426;DHT22;5769;47.998;7.788;2023-08-08T06:51:24;21.70;61.70
11426;DHT22;5769;47.998;7.788;2023-08-08T06:53:50;21.70;61.70
11426;DHT22;5769;47.998;7.788;2023-08-08T06:56:17;21.70;61.60
11426;DHT22;5769;47.998;7.788;2023-08-08T06:58:44;21.70;61.60
11426;DHT22;5769;47.998;7.788;2023-08-08T07:01:10;21.70;61.60
11426;DHT22;5769;47.998;7.788;2023-08-08T07:03:37;21.70;61.60
11426;DHT22;5769;47.998;7.788;2023-08-08T07:06:04;21.70;61.60
11426;DHT22;5769;47.998;7.788;2023-08-08T07:08:33;21.70;61.60
11426;DHT22;5769;47.998;7.788;2023-08-08T07:11:00;21.70;61.60
11426;DHT22;5769;47.998;7.788;2023-08-08T07:13:27;21.70;61.50
11426;DHT22;5769;47.998;7.788;2023-08-08T07:15:53;21.70;61.50
11426;DHT22;5769;47.998;7.788;2023-08-08T07:18:20;21.70;61.50
11426;DHT22;5769;47.998;7.788;2023-08-08T07:20:47;21.70;61.50
11426;DHT22;5769;47.998;7.788;2023-08-08T07:23:15;21.70;61.40
11426;DHT22;5769;47.998;7.788;2023-08-08T07:25:43;21.70;62.10
11426;DHT22;5769;47.998;7.788;2023-08-08T07:28:10;21.70;61.40
11426;DHT22;5769;47.998;7.788;2023-08-08T07:30:36;21.70;61.40
11426;DHT22;5769;47.998;7.788;2023-08-08T07:33:03;21.70;61.40
11426;DHT22;5769;47.998;7.788;2023-08-08T07:35:30;21.70;61.50
11426;DHT22;5769;47.998;7.788;2023-08-08T07:37:56;21.70;61.50
11426;DHT22;5769;47.998;7.788;2023-08-08T07:40:23;21.70;61.50
11426;DHT22;5769;47.998;7.788;2023-08-08T07:42:51;21.70;61.60
11426;DHT22;5769;47.998;7.788;2023-08-08T07:45:18;21.70;61.50
11426;DHT22;5769;47.998;7.788;2023-08-08T07:47:45;21.70;62.10
11426;DHT22;5769;47.998;7.788;2023-08-08T07:50:12;21.80;61.90
11426;DHT22;5769;47.998;7.788;2023-08-08T07:52:40;21.70;61.70
11426;DHT22;5769;47.998;7.788;2023-08-08T07:55:07;21.70;61.70
11426;DHT22;5769;47.998;7.788;2023-08-08T07:57:34;21.80;61.70
11426;DHT22;5769;47.998;7.788;2023-08-08T08:00:03;21.70;61.70
11426;DHT22;5769;47.998;7.788;2023-08-08T08:02:34;21.70;61.70
11426;DHT22;5769;47.998;7.788;2023-08-08T08:05:01;21.80;61.80
11426;DHT22;5769;47.998;7.788;2023-08-08T08:07:30;21.80;61.80
11426;DHT22;5769;47.998;7.788;2023-08-08T08:09:57;21.70;61.70
11426;DHT22;5769;47.998;7.788;2023-08-08T08:12:24;21.80;61.90
11426;DHT22;5769;47.998;7.788;2023-08-08T08:14:51;21.80;61.90
11426;DHT22;5769;47.998;7.788;2023-08-08T08:17:19;21.70;61.80
11426;DHT22;5769;47.998;7.788;2023-08-08T08:19:45;21.80;62.00
11426;DHT22;5769;47.998;7.788;2023-08-08T08:22:12;21.80;62.00
11426;DHT22;5769;47.998;7.788;2023-08-08T08:24:39;21.80;62.10
11426;DHT22;5769;47.998;7.788;2023-08-08T08:27:05;21.80;62.00
11426;DHT22;5769;47.998;7.788;2023-08-08T08:29:32;21.80;62.00
11426;DHT22;5769;47.998;7.788;2023-08-08T08:31:59;21.80;62.00
11426;DHT22;5769;47.998;7.788;2023-08-08T08:34:27;21.80;62.10
11426;DHT22;5769;47.998;7.788;2023-08-08T08:36:53;21.80;62.20
11426;DHT22;5769;47.998;7.788;2023-08-08T08:39:20;21.80;62.30
11426;DHT22;5769;47.998;7.788;2023-08-08T08:41:49;21.80;62.30
11426;DHT22;5769;47.998;7.788;2023-08-08T08:44:16;21.80;62.40
11426;DHT22;5769;47.998;7.788;2023-08-08T08:46:44;21.80;62.60
11426;DHT22;5769;47.998;7.788;2023-08-08T08:49:14;21.80;62.60
11426;DHT22;5769;47.998;7.788;2023-08-08T08:51:42;21.80;62.60
11426;DHT22;5769;47.998;7.788;2023-08-08T08:54:09;21.80;62.70
11426;DHT22;5769;47.998;7.788;2023-08-08T08:56:37;21.80;62.60
11426;DHT22;5769;47.998;7.788;2023-08-08T08:59:03;21.80;62.30
11426;DHT22;5769;47.998;7.788;2023-08-08T09:01:30;21.80;62.60
11426;DHT22;5769;47.998;7.788;2023-08-08T09:03:57;21.80;62.70
11426;DHT22;5769;47.998;7.788;2023-08-08T09:06:24;21.80;62.70
11426;DHT22;5769;47.998;7.788;2023-08-08T09:08:54;21.80;62.70
11426;DHT22;5769;47.998;7.788;2023-08-08T09:11:21;21.80;62.70
11426;DHT22;5769;47.998;7.788;2023-08-08T09:13:48;21.80;62.70
11426;DHT22;5769;47.998;7.788;2023-08-08T09:16:14;21.80;62.70
11426;DHT22;5769;47.998;7.788;2023-08-08T09:18:41;21.80;62.80
11426;DHT22;5769;47.998;7.788;2023-08-08T09:21:08;21.80;62.70
11426;DHT22;5769;47.998;7.788;2023-08-08T09:23:36;21.80;62.80
11426;DHT22;5769;47.998;7.788;2023-08-08T09:26:04;21.80;62.90
11426;DHT22;5769;47.998;7.788;2023-08-08T09:28:31;21.80;62.80
11426;DHT22;5769;47.998;7.788;2023-08-08T09:30:58;21.80;62.90
11426;DHT22;5769;47.998;7.788;2023-08-08T09:33:28;21.80;63.10
11426;DHT22;5769;47.998;7.788;2023-08-08T09:35:55;21.80;63.00
11426;DHT22;5769;47.998;7.788;2023-08-08T09:38:22;21.80;62.90
11426;DHT22;5769;47.998;7.788;2023-08-08T09:40:49;21.80;63.00
11426;DHT22;5769;47.998;7.788;2023-08-08T09:43:18;21.80;63.00
11426;DHT22;5769;47.998;7.788;2023-08-08T09:45:44;21.80;63.00
11426;DHT22;5769;47.998;7.788;2023-08-08T09:48:14;21.80;63.00
11426;DHT22;5769;47.998;7.788;2023-08-08T09:50:43;21.80;63.00
11426;DHT22;5769;47.998;7.788;2023-08-08T09:53:11;21.80;63.00
11426;DHT22;5769;47.998;7.788;2023-08-08T09:55:38;21.80;62.90
11426;DHT22;5769;47.998;7.788;2023-08-08T09:58:05;21.80;63.10
11426;DHT22;5769;47.998;7.788;2023-08-08T10:00:35;21.80;63.20
11426;DHT22;5769;47.998;7.788;2023-08-08T10:03:02;21.80;63.10
11426;DHT22;5769;47.998;7.788;2023-08-08T10:05:30;21.80;63.20
11426;DHT22;5769;47.998;7.788;2023-08-08T10:07:57;21.80;63.00
11426;DHT22;5769;47.998;7.788;2023-08-08T10:10:24;21.80;63.10
11426;DHT22;5769;47.998;7.788;2023-08-08T10:12:52;21.80;63.00
11426;DHT22;5769;47.998;7.788;2023-08-08T10:15:19;21.80;63.00
11426;DHT22;5769;47.998;7.788;2023-08-08T10:17:53;21.80;62.90
11426;DHT22;5769;47.998;7.788;2023-08-08T10:20:20;21.80;63.00
11426;DHT22;5769;47.998;7.788;2023-08-08T10:22:47;21.80;62.90
11426;DHT22;5769;47.998;7.788;2023-08-08T10:25:19;21.80;63.70
11426;DHT22;5769;47.998;7.788;2023-08-08T10:27:46;21.80;62.90
11426;DHT22;5769;47.998;7.788;2023-08-08T10:30:13;21.80;62.90
11426;DHT22;5769;47.998;7.788;2023-08-08T10:32:42;21.80;62.90
11426;DHT22;5769;47.998;7.788;2023-08-08T10:35:11;21.80;62.80
11426;DHT22;5769;47.998;7.788;2023-08-08T10:37:38;21.80;62.90
11426;DHT22;5769;47.998;7.788;2023-08-08T10:40:06;21.80;62.80
11426;DHT22;5769;47.998;7.788;2023-08-08T10:42:42;21.80;62.80
11426;DHT22;5769;47.998;7.788;2023-08-08T10:45:11;21.80;62.80
11426;DHT22;5769;47.998;7.788;2023-08-08T10:47:39;21.80;62.80
11426;DHT22;5769;47.998;7.788;2023-08-08T10:50:07;21.80;62.80
11426;DHT22;5769;47.998;7.788;2023-08-08T10:52:50;21.80;62.80
11426;DHT22;5769;47.998;7.788;2023-08-08T10:55:22;21.80;62.80
11426;DHT22;5769;47.998;7.788;2023-08-08T10:57:54;21.80;62.80
11426;DHT22;5769;47.998;7.788;2023-08-08T11:00:24;21.80;62.80
11426;DHT22;5769;47.998;7.788;2023-08-08T11:02:51;21.80;62.80
11426;DHT22;5769;47.998;7.788;2023-08-08T11:05:20;21.80;62.80
11426;DHT22;5769;47.998;7.788;2023-08-08T11:07:49;21.80;62.80
11426;DHT22;5769;47.998;7.788;2023-08-08T11:10:17;21.80;62.90
11426;DHT22;5769;47.998;7.788;2023-08-08T11:12:53;21.80;62.80
11426;DHT22;5769;47.998;7.788;2023-08-08T11:15:20;21.80;62.90
11426;DHT22;5769;47.998;7.788;2023-08-08T11:17:46;21.80;62.90
11426;DHT22;5769;47.998;7.788;2023-08-08T11:20:13;21.80;62.90
11426;DHT22;5769;47.998;7.788;2023-08-08T11:22:40;21.80;62.90
11426;DHT22;5769;47.998;7.788;2023-08-08T11:25:09;21.80;62.90
11426;DHT22;5769;47.998;7.788;2023-08-08T11:27:36;21.80;62.90
11426;DHT22;5769;47.998;7.788;2023-08-08T11:30:03;21.80;62.90
11426;DHT22;5769;47.998;7.788;2023-08-08T11:32:30;21.80;62.90
11426;DHT22;5769;47.998;7.788;2023-08-08T11:34:57;21.80;62.90
11426;DHT22;5769;47.998;7.788;2023-08-08T11:37:24;21.80;62.90
11426;DHT22;5769;47.998;7.788;2023-08-08T11:39:50;21.80;62.90
11426;DHT22;5769;47.998;7.788;2023-08-08T11:42:18;21.80;62.90
11426;DHT22;5769;47.998;7.788;2023-08-08T11:44:45;21.80;62.90
11426;DHT22;5769;47.998;7.788;2023-08-08T11:47:13;21.80;62.90
11426;DHT22;5769;47.998;7.788;2023-08-08T11:49:40;21.80;62.90
11426;DHT22;5769;47.998;7.788;2023-08-08T11:52:07;21.80;62.90
11426;DHT22;5769;47.998;7.788;2023-08-08T11:54:36;21.80;62.90
11426;DHT22;5769;47.998;7.788;2023-08-08T11:57:03;21.80;62.90
11426;DHT22;5769;47.998;7.788;2023-08-08T11:59:32;21.80;62.90
11426;DHT22;5769;47.998;7.788;2023-08-08T12:01:59;21.80;62.90
11426;DHT22;5769;47.998;7.788;2023-08-08T12:04:25;21.80;62.90
11426;DHT22;5769;47.998;7.788;2023-08-08T12:07:00;21.80;62.90
11426;DHT22;5769;47.998;7.788;2023-08-08T12:09:29;21.80;62.90
11426;DHT22;5769;47.998;7.788;2023-08-08T12:11:59;21.80;62.90
11426;DHT22;5769;47.998;7.788;2023-08-08T12:14:25;21.80;62.90
11426;DHT22;5769;47.998;7.788;2023-08-08T12:16:55;21.80;62.90
11426;DHT22;5769;47.998;7.788;2023-08-08T12:19:23;21.80;62.90
11426;DHT22;5769;47.998;7.788;2023-08-08T12:21:50;21.80;62.90
11426;DHT22;5769;47.998;7.788;2023-08-08T12:24:17;21.80;62.90
11426;DHT22;5769;47.998;7.788;2023-08-08T12:26:44;21.80;62.90
11426;DHT22;5769;47.998;7.788;2023-08-08T12:29:11;21.80;62.90
11426;DHT22;5769;47.998;7.788;2023-08-08T12:31:38;21.80;62.80
11426;DHT22;5769;47.998;7.788;2023-08-08T12:34:06;21.80;62.90
11426;DHT22;5769;47.998;7.788;2023-08-08T12:36:34;21.80;62.80
11426;DHT22;5769;47.998;7.788;2023-08-08T12:39:01;21.80;62.80
11426;DHT22;5769;47.998;7.788;2023-08-08T12:41:27;21.80;62.80
11426;DHT22;5769;47.998;7.788;2023-08-08T12:43:55;21.80;62.80
11426;DHT22;5769;47.998;7.788;2023-08-08T12:46:22;21.80;62.80
11426;DHT22;5769;47.998;7.788;2023-08-08T12:48:48;21.80;62.90
11426;DHT22;5769;47.998;7.788;2023-08-08T12:51:16;21.80;62.90
11426;DHT22;5769;47.998;7.788;2023-08-08T12:53:43;21.80;62.90
11426;DHT22;5769;47.998;7.788;2023-08-08T12:56:10;21.80;62.90
11426;DHT22;5769;47.998;7.788;2023-08-08T12:58:36;21.80;62.80
11426;DHT22;5769;47.998;7.788;2023-08-08T13:01:04;21.80;62.90
11426;DHT22;5769;47.998;7.788;2023-08-08T13:03:31;21.80;62.90
11426;DHT22;5769;47.998;7.788;2023-08-08T13:05:59;21.80;62.90
11426;DHT22;5769;47.998;7.788;2023-08-08T13:08:27;21.80;62.90
11426;DHT22;5769;47.998;7.788;2023-08-08T13:10:54;21.80;62.90
11426;DHT22;5769;47.998;7.788;2023-08-08T13:13:20;21.80;62.80
11426;DHT22;5769;47.998;7.788;2023-08-08T13:15:50;21.80;62.90
11426;DHT22;5769;47.998;7.788;2023-08-08T13:18:17;21.80;62.90
11426;DHT22;5769;47.998;7.788;2023-08-08T13:20:44;21.80;62.90
11426;DHT22;5769;47.998;7.788;2023-08-08T13:23:10;21.80;62.90
11426;DHT22;5769;47.998;7.788;2023-08-08T13:25:38;21.80;62.90
11426;DHT22;5769;47.998;7.788;2023-08-08T13:28:06;21.80;62.90
11426;DHT22;5769;47.998;7.788;2023-08-08T13:30:33;21.80;62.90
11426;DHT22;5769;47.998;7.788;2023-08-08T13:33:01;21.80;62.90
11426;DHT22;5769;47.998;7.788;2023-08-08T13:35:27;21.80;62.90
11426;DHT22;5769;47.998;7.788;2023-08-08T13:37:55;21.80;62.90
11426;DHT22;5769;47.998;7.788;2023-08-08T13:40:22;21.80;63.00
11426;DHT22;5769;47.998;7.788;2023-08-08T13:42:50;21.80;63.00
11426;DHT22;5769;47.998;7.788;2023-08-08T13:45:17;21.80;63.00
11426;DHT22;5769;47.998;7.788;2023-08-08T13:47:44;21.80;62.90
11426;DHT22;5769;47.998;7.788;2023-08-08T13:50:11;21.80;63.00
11426;DHT22;5769;47.998;7.788;2023-08-08T13:52:39;21.80;62.90
11426;DHT22;5769;47.998;7.788;2023-08-08T13:55:06;21.80;62.90
11426;DHT22;5769;47.998;7.788;2023-08-08T13:57:34;21.80;62.90
11426;DHT22;5769;47.998;7.788;2023-08-08T14:00:02;21.80;63.00
11426;DHT22;5769;47.998;7.788;2023-08-08T14:02:29;21.80;63.00
11426;DHT22;5769;47.998;7.788;2023-08-08T14:04:56;21.80;62.90
11426;DHT22;5769;47.998;7.788;2023-08-08T14:07:22;21.80;63.00
11426;DHT22;5769;47.998;7.788;2023-08-08T14:09:49;21.80;62.90
11426;DHT22;5769;47.998;7.788;2023-08-08T14:12:16;21.80;62.90
11426;DHT22;5769;47.998;7.788;2023-08-08T14:14:43;21.80;62.90
11426;DHT22;5769;47.998;7.788;2023-08-08T14:17:11;21.80;62.90
11426;DHT22;5769;47.998;7.788;2023-08-08T14:19:37;21.80;62.90
11426;DHT22;5769;47.998;7.788;2023-08-08T14:22:04;21.80;62.90
11426;DHT22;5769;47.998;7.788;2023-08-08T14:24:31;21.80;62.90
11426;DHT22;5769;47.998;7.788;2023-08-08T14:26:57;21.80;62.80
11426;DHT22;5769;47.998;7.788;2023-08-08T14:29:24;21.80;62.90
11426;DHT22;5769;47.998;7.788;2023-08-08T14:31:51;21.80;62.80
11426;DHT22;5769;47.998;7.788;2023-08-08T14:34:19;21.80;62.80
11426;DHT22;5769;47.998;7.788;2023-08-08T14:36:45;21.80;62.90
11426;DHT22;5769;47.998;7.788;2023-08-08T14:39:12;21.80;62.90
11426;DHT22;5769;47.998;7.788;2023-08-08T14:41:39;21.80;62.90
11426;DHT22;5769;47.998;7.788;2023-08-08T14:44:05;21.80;62.90
11426;DHT22;5769;47.998;7.788;2023-08-08T14:46:32;21.80;62.90
11426;DHT22;5769;47.998;7.788;2023-08-08T14:49:00;21.80;62.90
11426;DHT22;5769;47.998;7.788;2023-08-08T14:51:28;21.80;62.90
11426;DHT22;5769;47.998;7.788;2023-08-08T14:53:54;21.80;62.90
11426;DHT22;5769;47.998;7.788;2023-08-08T14:56:21;21.80;62.90
11426;DHT22;5769;47.998;7.788;2023-08-08T14:58:48;21.80;62.90
11426;DHT22;5769;47.998;7.788;2023-08-08T15:01:15;21.80;62.90
11426;DHT22;5769;47.998;7.788;2023-08-08T15:03:41;21.80;63.00
11426;DHT22;5769;47.998;7.788;2023-08-08T15:06:08;21.80;63.00
11426;DHT22;5769;47.998;7.788;2023-08-08T15:08:36;21.80;63.00
11426;DHT22;5769;47.998;7.788;2023-08-08T15:11:03;21.80;63.00
11426;DHT22;5769;47.998;7.788;2023-08-08T15:13:30;21.80;62.90
11426;DHT22;5769;47.998;7.788;2023-08-08T15:15:56;21.80;63.00
11426;DHT22;5769;47.998;7.788;2023-08-08T15:18:23;21.80;62.90
11426;DHT22;5769;47.998;7.788;2023-08-08T15:20:50;21.80;63.00
11426;DHT22;5769;47.998;7.788;2023-08-08T15:23:17;21.80;63.00
11426;DHT22;5769;47.998;7.788;2023-08-08T15:25:46;21.80;63.00
11426;DHT22;5769;47.998;7.788;2023-08-08T15:28:12;21.80;63.10
11426;DHT22;5769;47.998;7.788;2023-08-08T15:30:39;21.80;63.00
11426;DHT22;5769;47.998;7.788;2023-08-08T15:33:06;21.80;63.10
11426;DHT22;5769;47.998;7.788;2023-08-08T15:35:32;21.80;63.00
11426;DHT22;5769;47.998;7.788;2023-08-08T15:37:59;21.80;63.10
11426;DHT22;5769;47.998;7.788;2023-08-08T15:40:26;21.80;63.20
11426;DHT22;5769;47.998;7.788;2023-08-08T15:42:54;21.80;63.10
11426;DHT22;5769;47.998;7.788;2023-08-08T15:45:21;21.80;63.10